createdAt,value
2017-12-15T00:00:20.440Z,5.57
2017-12-15T00:00:46.547Z,5.59
2017-12-15T00:01:12.660Z,5.57
2017-12-15T00:01:38.787Z,5.54
2017-12-15T00:02:04.907Z,5.54
2017-12-15T00:02:31.021Z,5.33
2017-12-15T00:02:57.134Z,5.41
2017-12-15T00:03:23.259Z,5.35
2017-12-15T00:03:49.379Z,5.39
2017-12-15T00:04:15.489Z,5.48
2017-12-15T00:04:41.610Z,5.5
2017-12-15T00:05:07.746Z,5.56
2017-12-15T00:05:33.859Z,5.47
2017-12-15T00:05:59.975Z,5.53
2017-12-15T00:06:26.094Z,5.41
2017-12-15T00:06:52.203Z,5.41
2017-12-15T00:07:18.316Z,5.36
2017-12-15T00:07:44.433Z,5.39
2017-12-15T00:08:10.549Z,5.38
2017-12-15T00:08:36.661Z,5.39
2017-12-15T00:09:02.780Z,5.41
2017-12-15T00:09:28.912Z,5.33
2017-12-15T00:09:55.018Z,5.36
2017-12-15T00:10:21.138Z,5.41
2017-12-15T00:10:47.249Z,5.39
2017-12-15T00:11:13.376Z,5.44
2017-12-15T00:11:39.505Z,5.33
2017-12-15T00:12:05.615Z,5.39
2017-12-15T00:12:31.728Z,5.35
2017-12-15T00:12:57.864Z,5.35
2017-12-15T00:13:23.984Z,5.41
2017-12-15T00:13:50.094Z,5.39
2017-12-15T00:14:16.205Z,5.32
2017-12-15T00:14:42.327Z,5.41
2017-12-15T00:15:08.456Z,5.33
2017-12-15T00:15:34.572Z,5.53
2017-12-15T00:16:00.688Z,5.59
2017-12-15T00:16:26.806Z,5.51
2017-12-15T00:16:52.918Z,5.56
2017-12-15T00:17:19.041Z,5.51
2017-12-15T00:17:45.147Z,5.57
2017-12-15T00:18:11.268Z,5.53
2017-12-15T00:18:37.385Z,5.51
2017-12-15T00:19:03.500Z,5.56
2017-12-15T00:19:29.637Z,5.56
2017-12-15T00:19:55.754Z,5.61
2017-12-15T00:20:21.882Z,5.57
2017-12-15T00:20:47.991Z,5.56
2017-12-15T00:21:14.111Z,5.56
2017-12-15T00:21:40.244Z,5.59
2017-12-15T00:22:06.361Z,5.54
2017-12-15T00:22:32.475Z,5.53
2017-12-15T00:22:58.619Z,5.57
2017-12-15T00:23:24.709Z,5.53
2017-12-15T00:23:50.819Z,5.59
2017-12-15T00:24:16.937Z,5.54
2017-12-15T00:24:43.057Z,5.54
2017-12-15T00:25:09.169Z,5.51
2017-12-15T00:25:35.337Z,5.43
2017-12-15T00:26:01.402Z,5.43
2017-12-15T00:26:27.506Z,5.39
2017-12-15T00:26:53.625Z,5.39
2017-12-15T00:27:19.736Z,5.39
2017-12-15T00:27:45.851Z,5.5
2017-12-15T00:28:11.982Z,5.39
2017-12-15T00:28:38.099Z,5.46
2017-12-15T00:29:04.209Z,5.57
2017-12-15T00:29:30.346Z,5.57
2017-12-15T00:29:56.461Z,5.59
2017-12-15T00:30:22.580Z,5.54
2017-12-15T00:30:48.717Z,5.54
2017-12-15T00:31:14.828Z,5.54
2017-12-15T00:31:40.941Z,5.57
2017-12-15T00:32:07.060Z,5.54
2017-12-15T00:32:33.177Z,5.64
2017-12-15T00:32:59.284Z,5.57
2017-12-15T00:33:25.403Z,5.53
2017-12-15T00:33:51.515Z,5.65
2017-12-15T00:34:17.623Z,5.51
2017-12-15T00:34:43.741Z,5.41
2017-12-15T00:35:09.853Z,5.53
2017-12-15T00:35:35.970Z,5.57
2017-12-15T00:36:02.088Z,5.68
2017-12-15T00:36:28.201Z,5.66
2017-12-15T00:36:54.318Z,5.53
2017-12-15T00:37:20.430Z,5.56
2017-12-15T00:37:46.550Z,5.53
2017-12-15T00:38:12.658Z,5.57
2017-12-15T00:38:38.796Z,5.54
2017-12-15T00:39:04.926Z,5.57
2017-12-15T00:39:31.025Z,5.59
2017-12-15T00:39:57.139Z,5.54
2017-12-15T00:40:23.244Z,5.56
2017-12-15T00:40:49.362Z,5.62
2017-12-15T00:41:15.473Z,5.66
2017-12-15T00:41:41.595Z,5.64
2017-12-15T00:42:07.724Z,5.56
2017-12-15T00:42:33.860Z,5.57
2017-12-15T00:42:59.976Z,5.51
2017-12-15T00:43:26.094Z,5.5
2017-12-15T00:43:52.220Z,5.54
2017-12-15T00:44:18.340Z,5.56
2017-12-15T00:44:44.454Z,5.68
2017-12-15T00:45:10.572Z,5.64
2017-12-15T00:45:36.689Z,5.56
2017-12-15T00:46:02.799Z,5.53
2017-12-15T00:46:28.915Z,5.54
2017-12-15T00:46:55.024Z,5.59
2017-12-15T00:47:21.143Z,5.61
2017-12-15T00:47:47.256Z,5.56
2017-12-15T00:48:13.422Z,5.53
2017-12-15T00:48:39.484Z,5.54
2017-12-15T00:49:05.597Z,5.53
2017-12-15T00:49:31.716Z,5.54
2017-12-15T00:49:57.836Z,5.66
2017-12-15T00:50:23.950Z,5.71
2017-12-15T00:50:50.059Z,5.64
2017-12-15T00:51:16.177Z,5.71
2017-12-15T00:51:42.313Z,5.71
2017-12-15T00:52:08.430Z,5.75
2017-12-15T00:52:34.550Z,5.73
2017-12-15T00:53:00.661Z,5.84
2017-12-15T00:53:26.775Z,5.83
2017-12-15T00:53:52.890Z,5.83
2017-12-15T00:54:19.035Z,5.83
2017-12-15T00:54:45.163Z,5.84
2017-12-15T00:55:11.280Z,5.91
2017-12-15T00:55:37.393Z,5.87
2017-12-15T00:56:03.508Z,5.97
2017-12-15T00:56:29.622Z,5.84
2017-12-15T00:56:55.756Z,5.72
2017-12-15T00:57:21.871Z,5.72
2017-12-15T00:57:48.009Z,5.79
2017-12-15T00:58:14.128Z,5.66
2017-12-15T00:58:40.235Z,5.65
2017-12-15T00:59:06.351Z,5.62
2017-12-15T00:59:32.463Z,5.66
2017-12-15T00:59:58.585Z,5.59
2017-12-15T01:00:24.701Z,5.69
2017-12-15T01:00:50.835Z,5.66
2017-12-15T01:01:16.967Z,5.66
2017-12-15T01:01:43.075Z,5.61
2017-12-15T01:02:09.189Z,5.68
2017-12-15T01:02:35.311Z,5.66
2017-12-15T01:03:01.420Z,5.66
2017-12-15T01:03:27.538Z,5.65
2017-12-15T01:03:53.657Z,5.68
2017-12-15T01:04:19.771Z,5.65
2017-12-15T01:04:45.887Z,5.69
2017-12-15T01:05:12.001Z,5.64
2017-12-15T01:05:38.117Z,5.69
2017-12-15T01:06:04.225Z,5.68
2017-12-15T01:06:30.343Z,5.71
2017-12-15T01:06:56.455Z,5.71
2017-12-15T01:07:22.576Z,5.61
2017-12-15T01:07:48.684Z,5.62
2017-12-15T01:08:14.807Z,5.65
2017-12-15T01:08:40.918Z,5.69
2017-12-15T01:09:07.031Z,5.66
2017-12-15T01:09:33.164Z,5.66
2017-12-15T01:09:59.278Z,5.8
2017-12-15T01:10:25.387Z,5.82
2017-12-15T01:10:51.502Z,5.79
2017-12-15T01:11:17.617Z,5.82
2017-12-15T01:11:43.727Z,5.82
2017-12-15T01:12:09.847Z,5.79
2017-12-15T01:12:35.956Z,5.83
2017-12-15T01:13:02.088Z,5.71
2017-12-15T01:13:28.207Z,5.68
2017-12-15T01:13:54.325Z,5.83
2017-12-15T01:14:20.441Z,5.75
2017-12-15T01:14:46.555Z,5.69
2017-12-15T01:15:12.673Z,5.69
2017-12-15T01:15:38.781Z,5.65
2017-12-15T01:16:04.946Z,5.72
2017-12-15T01:16:31.012Z,5.76
2017-12-15T01:16:57.121Z,5.82
2017-12-15T01:17:23.245Z,5.82
2017-12-15T01:17:49.354Z,5.69
2017-12-15T01:18:15.467Z,5.79
2017-12-15T01:18:41.603Z,5.69
2017-12-15T01:19:07.716Z,5.8
2017-12-15T01:19:33.837Z,5.82
2017-12-15T01:19:59.951Z,5.75
2017-12-15T01:20:26.062Z,5.89
2017-12-15T01:20:52.174Z,5.89
2017-12-15T01:21:18.283Z,5.79
2017-12-15T01:21:44.397Z,5.79
2017-12-15T01:22:10.570Z,5.89
2017-12-15T01:22:36.627Z,5.84
2017-12-15T01:23:02.762Z,5.87
2017-12-15T01:23:28.880Z,5.8
2017-12-15T01:23:54.995Z,5.79
2017-12-15T01:24:21.105Z,5.83
2017-12-15T01:24:47.217Z,5.89
2017-12-15T01:25:13.333Z,5.79
2017-12-15T01:25:39.448Z,5.76
2017-12-15T01:26:05.567Z,5.83
2017-12-15T01:26:31.681Z,5.79
2017-12-15T01:26:57.791Z,5.73
2017-12-15T01:27:23.915Z,5.76
2017-12-15T01:27:50.021Z,5.76
2017-12-15T01:28:16.134Z,5.69
2017-12-15T01:28:42.257Z,5.72
2017-12-15T01:29:08.365Z,5.65
2017-12-15T01:29:34.480Z,5.69
2017-12-15T01:30:00.618Z,5.69
2017-12-15T01:30:26.728Z,5.75
2017-12-15T01:30:52.841Z,5.69
2017-12-15T01:31:18.959Z,5.69
2017-12-15T01:31:45.076Z,5.71
2017-12-15T01:32:11.187Z,5.73
2017-12-15T01:32:37.307Z,5.79
2017-12-15T01:33:03.440Z,5.82
2017-12-15T01:33:29.548Z,5.84
2017-12-15T01:33:55.673Z,5.89
2017-12-15T01:34:21.794Z,5.83
2017-12-15T01:34:47.917Z,5.82
2017-12-15T01:35:14.024Z,5.86
2017-12-15T01:35:40.137Z,5.84
2017-12-15T01:36:06.247Z,5.9
2017-12-15T01:36:32.364Z,5.97
2017-12-15T01:36:58.492Z,5.87
2017-12-15T01:37:24.605Z,5.71
2017-12-15T01:37:50.723Z,5.8
2017-12-15T01:38:16.853Z,5.84
2017-12-15T01:38:42.991Z,5.79
2017-12-15T01:39:09.103Z,5.83
2017-12-15T01:39:35.223Z,5.82
2017-12-15T01:40:01.328Z,5.86
2017-12-15T01:40:27.450Z,5.9
2017-12-15T01:40:53.562Z,5.9
2017-12-15T01:41:19.676Z,5.87
2017-12-15T01:41:45.788Z,5.75
2017-12-15T01:42:11.899Z,5.75
2017-12-15T01:42:38.042Z,5.86
2017-12-15T01:43:04.161Z,5.86
2017-12-15T01:43:30.276Z,5.89
2017-12-15T01:43:56.386Z,5.89
2017-12-15T01:44:22.508Z,5.93
2017-12-15T01:44:48.620Z,5.91
2017-12-15T01:45:14.728Z,5.87
2017-12-15T01:45:40.867Z,5.9
2017-12-15T01:46:06.982Z,5.98
2017-12-15T01:46:33.092Z,6.04
2017-12-15T01:46:59.207Z,6.04
2017-12-15T01:47:25.324Z,6.01
2017-12-15T01:47:51.432Z,6.07
2017-12-15T01:48:17.546Z,6.07
2017-12-15T01:48:43.666Z,6.04
2017-12-15T01:49:09.780Z,6.04
2017-12-15T01:49:35.893Z,5.98
2017-12-15T01:50:02.008Z,5.94
2017-12-15T01:50:28.120Z,6.02
2017-12-15T01:50:54.240Z,5.94
2017-12-15T01:51:20.360Z,5.89
2017-12-15T01:51:46.469Z,5.76
2017-12-15T01:52:12.578Z,5.75
2017-12-15T01:52:38.695Z,5.83
2017-12-15T01:53:04.832Z,5.86
2017-12-15T01:53:30.942Z,5.84
2017-12-15T01:53:57.053Z,5.87
2017-12-15T01:54:23.169Z,5.91
2017-12-15T01:54:49.279Z,5.98
2017-12-15T01:55:15.396Z,5.98
2017-12-15T01:55:41.511Z,6.01
2017-12-15T01:56:07.624Z,6.01
2017-12-15T01:56:33.744Z,6.01
2017-12-15T01:56:59.860Z,6.09
2017-12-15T01:57:25.969Z,6.07
2017-12-15T01:57:52.088Z,6.08
2017-12-15T01:58:18.198Z,6.09
2017-12-15T01:58:44.310Z,6.11
2017-12-15T01:59:10.429Z,6.04
2017-12-15T01:59:36.545Z,6.09
2017-12-15T02:00:02.656Z,6.04
2017-12-15T02:00:28.769Z,5.98
2017-12-15T02:00:54.887Z,5.91
2017-12-15T02:01:20.995Z,5.94
2017-12-15T02:01:47.133Z,5.98
2017-12-15T02:02:13.243Z,6.01
2017-12-15T02:02:39.360Z,5.89
2017-12-15T02:03:05.474Z,5.89
2017-12-15T02:03:31.585Z,5.87
2017-12-15T02:03:57.700Z,5.83
2017-12-15T02:04:23.840Z,5.9
2017-12-15T02:04:49.950Z,5.93
2017-12-15T02:05:16.068Z,6.05
2017-12-15T02:05:42.176Z,6.07
2017-12-15T02:06:08.295Z,5.98
2017-12-15T02:06:34.401Z,6.02
2017-12-15T02:07:00.525Z,5.99
2017-12-15T02:07:26.657Z,6.07
2017-12-15T02:07:52.792Z,6.01
2017-12-15T02:08:18.910Z,5.99
2017-12-15T02:08:45.023Z,6.07
2017-12-15T02:09:11.137Z,6.08
2017-12-15T02:09:37.279Z,6.01
2017-12-15T02:10:03.392Z,6.05
2017-12-15T02:10:29.524Z,5.98
2017-12-15T02:10:55.642Z,6.05
2017-12-15T02:11:21.761Z,5.99
2017-12-15T02:11:47.869Z,5.91
2017-12-15T02:12:13.987Z,5.93
2017-12-15T02:12:40.097Z,5.98
2017-12-15T02:13:06.235Z,5.91
2017-12-15T02:13:32.360Z,5.94
2017-12-15T02:13:58.472Z,5.97
2017-12-15T02:14:24.589Z,6.05
2017-12-15T02:14:50.700Z,6.09
2017-12-15T02:15:16.814Z,6.12
2017-12-15T02:15:42.932Z,6.19
2017-12-15T02:16:09.052Z,6.19
2017-12-15T02:16:35.179Z,6.28
2017-12-15T02:17:01.298Z,6.28
2017-12-15T02:17:27.405Z,6.24
2017-12-15T02:17:53.519Z,6.38
2017-12-15T02:18:19.637Z,6.27
2017-12-15T02:18:45.771Z,6.16
2017-12-15T02:19:11.885Z,6.19
2017-12-15T02:19:38.006Z,6.17
2017-12-15T02:20:04.116Z,6.17
2017-12-15T02:20:30.232Z,6.12
2017-12-15T02:20:56.349Z,6.2
2017-12-15T02:21:22.457Z,6.3
2017-12-15T02:21:48.577Z,6.17
2017-12-15T02:22:14.708Z,6.12
2017-12-15T02:22:40.825Z,6.11
2017-12-15T02:23:06.936Z,6.17
2017-12-15T02:23:33.073Z,6.16
2017-12-15T02:23:59.187Z,6.14
2017-12-15T02:24:25.298Z,6.28
2017-12-15T02:24:51.418Z,6.28
2017-12-15T02:25:17.530Z,6.17
2017-12-15T02:25:43.640Z,6.22
2017-12-15T02:26:09.763Z,6.19
2017-12-15T02:26:35.872Z,6.2
2017-12-15T02:27:01.991Z,6.19
2017-12-15T02:27:28.108Z,6.09
2017-12-15T02:27:54.221Z,6.11
2017-12-15T02:28:20.332Z,6.08
2017-12-15T02:28:46.451Z,6.16
2017-12-15T02:29:12.568Z,6.02
2017-12-15T02:29:38.679Z,6.02
2017-12-15T02:30:04.798Z,6.12
2017-12-15T02:30:30.910Z,6.16
2017-12-15T02:30:57.024Z,6.08
2017-12-15T02:31:23.137Z,6.05
2017-12-15T02:31:49.250Z,6.07
2017-12-15T02:32:15.364Z,6.08
2017-12-15T02:32:41.483Z,6.12
2017-12-15T02:33:07.590Z,6.14
2017-12-15T02:33:33.709Z,6.16
2017-12-15T02:33:59.818Z,6.19
2017-12-15T02:34:25.929Z,6.19
2017-12-15T02:34:52.045Z,6.2
2017-12-15T02:35:18.157Z,6.31
2017-12-15T02:35:44.275Z,6.07
2017-12-15T02:36:10.398Z,6.04
2017-12-15T02:36:36.527Z,6.09
2017-12-15T02:37:02.641Z,6.17
2017-12-15T02:37:28.750Z,6.07
2017-12-15T02:37:54.866Z,6.05
2017-12-15T02:38:20.973Z,5.93
2017-12-15T02:38:47.110Z,6.04
2017-12-15T02:39:13.226Z,6.01
2017-12-15T02:39:39.337Z,5.97
2017-12-15T02:40:05.452Z,6.02
2017-12-15T02:40:31.572Z,6.08
2017-12-15T02:40:57.686Z,6.08
2017-12-15T02:41:23.805Z,6.05
2017-12-15T02:41:49.919Z,6.28
2017-12-15T02:42:16.034Z,6.24
2017-12-15T02:42:42.173Z,6.19
2017-12-15T02:43:08.289Z,6.3
2017-12-15T02:43:34.399Z,6.28
2017-12-15T02:44:00.516Z,6.26
2017-12-15T02:44:26.646Z,6.3
2017-12-15T02:44:52.761Z,6.26
2017-12-15T02:45:18.880Z,6.19
2017-12-15T02:45:44.993Z,6.22
2017-12-15T02:46:11.109Z,6.26
2017-12-15T02:46:37.226Z,6.27
2017-12-15T02:47:03.334Z,6.12
2017-12-15T02:47:29.454Z,6.16
2017-12-15T02:47:55.564Z,6.22
2017-12-15T02:48:21.681Z,6.24
2017-12-15T02:48:47.788Z,6.27
2017-12-15T02:49:13.904Z,6.28
2017-12-15T02:49:40.017Z,6.28
2017-12-15T02:50:06.136Z,6.24
2017-12-15T02:50:32.247Z,6.26
2017-12-15T02:50:58.363Z,6.28
2017-12-15T02:51:24.486Z,6.12
2017-12-15T02:51:50.614Z,6.28
2017-12-15T02:52:16.727Z,6.26
2017-12-15T02:52:42.861Z,6.24
2017-12-15T02:53:08.978Z,6.27
2017-12-15T02:53:35.089Z,6.26
2017-12-15T02:54:01.203Z,6.19
2017-12-15T02:54:27.316Z,6.04
2017-12-15T02:54:53.436Z,6.14
2017-12-15T02:55:19.549Z,6.09
2017-12-15T02:55:45.688Z,6.08
2017-12-15T02:56:11.809Z,6.07
2017-12-15T02:56:37.919Z,6.04
2017-12-15T02:57:04.031Z,6.05
2017-12-15T02:57:30.141Z,6.01
2017-12-15T02:57:56.258Z,5.99
2017-12-15T02:58:22.370Z,5.93
2017-12-15T02:58:48.483Z,5.91
2017-12-15T02:59:14.595Z,5.99
2017-12-15T02:59:40.714Z,5.86
2017-12-15T03:00:06.838Z,5.93
2017-12-15T03:00:32.945Z,5.87
2017-12-15T03:00:59.060Z,5.87
2017-12-15T03:01:25.174Z,5.93
2017-12-15T03:01:51.320Z,5.87
2017-12-15T03:02:17.429Z,5.98
2017-12-15T03:02:43.537Z,5.99
2017-12-15T03:03:09.654Z,5.97
2017-12-15T03:03:35.770Z,6.05
2017-12-15T03:04:01.883Z,6.04
2017-12-15T03:04:28.002Z,5.98
2017-12-15T03:04:54.135Z,5.97
2017-12-15T03:05:20.245Z,5.86
2017-12-15T03:05:46.367Z,5.84
2017-12-15T03:06:12.497Z,5.72
2017-12-15T03:06:38.610Z,5.72
2017-12-15T03:07:04.728Z,5.69
2017-12-15T03:07:30.838Z,5.8
2017-12-15T03:07:56.958Z,5.86
2017-12-15T03:08:23.074Z,5.84
2017-12-15T03:08:49.183Z,5.84
2017-12-15T03:09:15.302Z,5.87
2017-12-15T03:09:41.413Z,5.82
2017-12-15T03:10:07.529Z,5.8
2017-12-15T03:10:33.660Z,5.84
2017-12-15T03:10:59.776Z,5.79
2017-12-15T03:11:25.888Z,5.89
2017-12-15T03:11:52.002Z,5.75
2017-12-15T03:12:18.119Z,5.72
2017-12-15T03:12:44.236Z,5.8
2017-12-15T03:13:10.347Z,5.73
2017-12-15T03:13:36.457Z,5.75
2017-12-15T03:14:02.574Z,5.82
2017-12-15T03:14:28.692Z,5.91
2017-12-15T03:14:54.806Z,5.87
2017-12-15T03:15:20.920Z,6.01
2017-12-15T03:15:47.029Z,5.93
2017-12-15T03:16:13.144Z,5.97
2017-12-15T03:16:39.256Z,6.07
2017-12-15T03:17:05.398Z,6.01
2017-12-15T03:17:31.507Z,5.9
2017-12-15T03:17:57.625Z,5.98
2017-12-15T03:18:23.761Z,5.99
2017-12-15T03:18:49.879Z,5.89
2017-12-15T03:19:15.990Z,5.94
2017-12-15T03:19:42.109Z,6.02
2017-12-15T03:20:08.221Z,6.05
2017-12-15T03:20:34.346Z,5.98
2017-12-15T03:21:00.470Z,5.91
2017-12-15T03:21:26.584Z,5.89
2017-12-15T03:21:52.695Z,5.94
2017-12-15T03:22:18.816Z,5.97
2017-12-15T03:22:44.928Z,5.73
2017-12-15T03:23:11.047Z,5.82
2017-12-15T03:23:37.159Z,5.83
2017-12-15T03:24:03.274Z,5.76
2017-12-15T03:24:29.386Z,5.66
2017-12-15T03:24:55.503Z,5.73
2017-12-15T03:25:21.620Z,5.75
2017-12-15T03:25:47.731Z,5.72
2017-12-15T03:26:13.849Z,5.76
2017-12-15T03:26:39.965Z,5.79
2017-12-15T03:27:06.094Z,5.82
2017-12-15T03:27:32.208Z,5.73
2017-12-15T03:27:58.325Z,5.69
2017-12-15T03:28:24.443Z,5.75
2017-12-15T03:28:50.575Z,5.62
2017-12-15T03:29:16.688Z,5.68
2017-12-15T03:29:42.807Z,5.65
2017-12-15T03:30:08.939Z,5.62
2017-12-15T03:30:35.094Z,5.64
2017-12-15T03:31:01.205Z,5.71
2017-12-15T03:31:27.323Z,5.68
2017-12-15T03:31:53.442Z,5.83
2017-12-15T03:32:19.574Z,5.82
2017-12-15T03:32:45.694Z,5.75
2017-12-15T03:33:11.802Z,5.76
2017-12-15T03:33:37.940Z,5.79
2017-12-15T03:34:04.051Z,5.79
2017-12-15T03:34:30.163Z,5.79
2017-12-15T03:34:56.757Z,5.72
2017-12-15T03:35:22.823Z,5.69
2017-12-15T03:35:48.933Z,5.79
2017-12-15T03:36:15.047Z,5.72
2017-12-15T03:36:41.164Z,5.71
2017-12-15T03:37:07.276Z,5.8
2017-12-15T03:37:33.396Z,5.83
2017-12-15T03:37:59.517Z,5.89
2017-12-15T03:38:25.624Z,5.8
2017-12-15T03:38:51.745Z,5.86
2017-12-15T03:39:17.860Z,5.84
2017-12-15T03:39:43.971Z,5.9
2017-12-15T03:40:10.091Z,5.97
2017-12-15T03:40:36.198Z,5.84
2017-12-15T03:41:02.333Z,5.84
2017-12-15T03:41:28.455Z,5.76
2017-12-15T03:41:54.571Z,5.82
2017-12-15T03:42:20.684Z,5.87
2017-12-15T03:42:46.791Z,5.9
2017-12-15T03:43:12.903Z,5.94
2017-12-15T03:43:39.023Z,6.04
2017-12-15T03:44:05.135Z,6.02
2017-12-15T03:44:31.255Z,6.08
2017-12-15T03:44:57.398Z,6.02
2017-12-15T03:45:23.510Z,6.08
2017-12-15T03:45:49.616Z,6.11
2017-12-15T03:46:15.727Z,6.12
2017-12-15T03:46:41.840Z,5.97
2017-12-15T03:47:07.957Z,5.99
2017-12-15T03:47:34.070Z,6.04
2017-12-15T03:48:00.183Z,6.04
2017-12-15T03:48:26.302Z,6.07
2017-12-15T03:48:52.408Z,6.05
2017-12-15T03:49:18.531Z,6.01
2017-12-15T03:49:44.643Z,6.08
2017-12-15T03:50:10.756Z,6.04
2017-12-15T03:50:36.873Z,6.07
2017-12-15T03:51:02.985Z,6.02
2017-12-15T03:51:29.105Z,5.98
2017-12-15T03:51:55.219Z,6.01
2017-12-15T03:52:21.332Z,6.01
2017-12-15T03:52:47.446Z,6.05
2017-12-15T03:53:13.561Z,6.02
2017-12-15T03:53:39.669Z,6.01
2017-12-15T03:54:05.792Z,6.05
2017-12-15T03:54:31.893Z,5.82
2017-12-15T03:54:58.034Z,5.82
2017-12-15T03:55:24.147Z,5.66
2017-12-15T03:55:50.268Z,5.73
2017-12-15T03:56:16.386Z,5.65
2017-12-15T03:56:42.503Z,5.64
2017-12-15T03:57:08.611Z,5.57
2017-12-15T03:57:34.726Z,5.64
2017-12-15T03:58:00.844Z,5.64
2017-12-15T03:58:26.953Z,5.59
2017-12-15T03:58:53.091Z,5.66
2017-12-15T03:59:19.203Z,5.68
2017-12-15T03:59:45.320Z,5.51
2017-12-15T04:00:11.432Z,5.56
2017-12-15T04:00:37.562Z,5.41
2017-12-15T04:01:03.680Z,5.33
2017-12-15T04:01:29.790Z,5.39
2017-12-15T04:01:55.912Z,5.47
2017-12-15T04:02:22.025Z,5.59
2017-12-15T04:02:48.138Z,5.39
2017-12-15T04:03:14.249Z,5.38
2017-12-15T04:03:40.368Z,5.33
2017-12-15T04:04:06.483Z,5.38
2017-12-15T04:04:32.593Z,5.36
2017-12-15T04:04:58.735Z,5.29
2017-12-15T04:05:24.848Z,5.33
2017-12-15T04:05:50.962Z,5.35
2017-12-15T04:06:17.074Z,5.38
2017-12-15T04:06:43.185Z,5.36
2017-12-15T04:07:09.304Z,5.2
2017-12-15T04:07:35.420Z,5.14
2017-12-15T04:08:01.530Z,5.15
2017-12-15T04:08:27.650Z,5.14
2017-12-15T04:08:53.783Z,5.15
2017-12-15T04:09:19.894Z,5.25
2017-12-15T04:09:46.011Z,5.17
2017-12-15T04:10:12.127Z,5.26
2017-12-15T04:10:38.239Z,5.3
2017-12-15T04:11:04.349Z,5.3
2017-12-15T04:11:30.462Z,5.35
2017-12-15T04:11:56.581Z,5.38
2017-12-15T04:12:22.687Z,5.33
2017-12-15T04:12:48.805Z,5.28
2017-12-15T04:13:14.924Z,5.17
2017-12-15T04:13:41.037Z,5.23
2017-12-15T04:14:07.151Z,5.23
2017-12-15T04:14:33.266Z,5.21
2017-12-15T04:14:59.383Z,5.25
2017-12-15T04:15:25.500Z,5.21
2017-12-15T04:15:51.614Z,5.25
2017-12-15T04:16:17.732Z,5.23
2017-12-15T04:16:43.851Z,5.26
2017-12-15T04:17:09.966Z,5.36
2017-12-15T04:17:36.076Z,5.3
2017-12-15T04:18:02.187Z,5.35
2017-12-15T04:18:28.298Z,5.29
2017-12-15T04:18:54.410Z,5.41
2017-12-15T04:19:20.535Z,5.3
2017-12-15T04:19:46.646Z,5.32
2017-12-15T04:20:12.761Z,5.25
2017-12-15T04:20:38.871Z,5.17
2017-12-15T04:21:04.987Z,5.23
2017-12-15T04:21:31.105Z,5.14
2017-12-15T04:21:57.214Z,5.15
2017-12-15T04:22:23.334Z,5.11
2017-12-15T04:22:49.444Z,5.11
2017-12-15T04:23:15.572Z,5.05
2017-12-15T04:23:41.671Z,5.15
2017-12-15T04:24:07.790Z,5.11
2017-12-15T04:24:33.901Z,5.15
2017-12-15T04:25:00.024Z,5.08
2017-12-15T04:25:26.131Z,5
2017-12-15T04:25:52.271Z,5.05
2017-12-15T04:26:18.382Z,5.08
2017-12-15T04:26:44.492Z,5.07
2017-12-15T04:27:10.610Z,5.1
2017-12-15T04:27:36.724Z,5.11
2017-12-15T04:28:02.843Z,5.1
2017-12-15T04:28:28.954Z,5.08
2017-12-15T04:28:55.075Z,4.99
2017-12-15T04:29:21.194Z,5.04
2017-12-15T04:29:47.302Z,5.02
2017-12-15T04:30:13.438Z,5.12
2017-12-15T04:30:39.551Z,5.08
2017-12-15T04:31:05.667Z,5.04
2017-12-15T04:31:31.799Z,5.14
2017-12-15T04:31:57.919Z,5.08
2017-12-15T04:32:24.030Z,5.1
2017-12-15T04:32:50.143Z,5.15
2017-12-15T04:33:16.258Z,5.21
2017-12-15T04:33:42.370Z,5.15
2017-12-15T04:34:08.484Z,5.1
2017-12-15T04:34:34.598Z,5.12
2017-12-15T04:35:00.717Z,5.14
2017-12-15T04:35:26.853Z,5.15
2017-12-15T04:35:52.966Z,5.18
2017-12-15T04:36:19.082Z,5.1
2017-12-15T04:36:45.194Z,5.1
2017-12-15T04:37:11.313Z,4.99
2017-12-15T04:37:37.430Z,5.2
2017-12-15T04:38:03.546Z,5.05
2017-12-15T04:38:29.652Z,5.11
2017-12-15T04:38:55.762Z,5.1
2017-12-15T04:39:21.880Z,5.25
2017-12-15T04:39:47.994Z,5.25
2017-12-15T04:40:14.110Z,5.29
2017-12-15T04:40:40.224Z,5.32
2017-12-15T04:41:06.339Z,5.25
2017-12-15T04:41:32.460Z,5.32
2017-12-15T04:41:58.572Z,5.36
2017-12-15T04:42:24.682Z,5.36
2017-12-15T04:42:50.795Z,5.39
2017-12-15T04:43:16.908Z,5.39
2017-12-15T04:43:43.022Z,5.39
2017-12-15T04:44:09.140Z,5.43
2017-12-15T04:44:35.257Z,5.43
2017-12-15T04:45:01.372Z,5.41
2017-12-15T04:45:27.480Z,5.51
2017-12-15T04:45:53.600Z,5.5
2017-12-15T04:46:19.711Z,5.61
2017-12-15T04:46:45.826Z,5.53
2017-12-15T04:47:11.981Z,5.38
2017-12-15T04:47:38.091Z,5.46
2017-12-15T04:48:04.210Z,5.41
2017-12-15T04:48:30.345Z,5.35
2017-12-15T04:48:56.455Z,5.29
2017-12-15T04:49:22.574Z,5.14
2017-12-15T04:49:48.684Z,5.14
2017-12-15T04:50:14.829Z,5.07
2017-12-15T04:50:40.966Z,5.18
2017-12-15T04:51:07.076Z,5.14
2017-12-15T04:51:33.185Z,5.12
2017-12-15T04:51:59.317Z,5.07
2017-12-15T04:52:25.435Z,5.12
2017-12-15T04:52:51.545Z,4.97
2017-12-15T04:53:17.665Z,5.07
2017-12-15T04:53:43.801Z,5.07
2017-12-15T04:54:09.911Z,5.02
2017-12-15T04:54:36.029Z,5.12
2017-12-15T04:55:02.137Z,5.17
2017-12-15T04:55:28.256Z,5.15
2017-12-15T04:55:54.365Z,5.15
2017-12-15T04:56:20.478Z,5.15
2017-12-15T04:56:46.608Z,5.12
2017-12-15T04:57:12.722Z,5.14
2017-12-15T04:57:38.837Z,5.14
2017-12-15T04:58:04.949Z,5.11
2017-12-15T04:58:31.070Z,5.11
2017-12-15T04:58:57.186Z,5.18
2017-12-15T04:59:23.312Z,5.17
2017-12-15T04:59:49.433Z,5.21
2017-12-15T05:00:15.543Z,5.23
2017-12-15T05:00:41.665Z,5.1
2017-12-15T05:01:07.778Z,5.15
2017-12-15T05:01:33.897Z,5.07
2017-12-15T05:02:00.013Z,5.12
2017-12-15T05:02:26.127Z,5.23
2017-12-15T05:02:52.245Z,5.23
2017-12-15T05:03:18.354Z,5.17
2017-12-15T05:03:44.464Z,5.2
2017-12-15T05:04:10.584Z,5.21
2017-12-15T05:04:36.695Z,5.21
2017-12-15T05:05:02.809Z,5.26
2017-12-15T05:05:28.926Z,5.2
2017-12-15T05:05:55.046Z,5.15
2017-12-15T05:06:21.152Z,5.2
2017-12-15T05:06:47.269Z,5.28
2017-12-15T05:07:13.388Z,5.32
2017-12-15T05:07:39.502Z,5.28
2017-12-15T05:08:05.613Z,5.32
2017-12-15T05:08:31.731Z,5.2
2017-12-15T05:08:57.879Z,5.17
2017-12-15T05:09:24.021Z,5.15
2017-12-15T05:09:50.131Z,5.17
2017-12-15T05:10:16.266Z,5.08
2017-12-15T05:10:42.374Z,5.15
2017-12-15T05:11:08.488Z,5.12
2017-12-15T05:11:34.609Z,5.1
2017-12-15T05:12:00.718Z,4.99
2017-12-15T05:12:26.837Z,5.11
2017-12-15T05:12:52.948Z,5.04
2017-12-15T05:13:19.068Z,5.14
2017-12-15T05:13:45.188Z,5.11
2017-12-15T05:14:11.316Z,5.05
2017-12-15T05:14:37.434Z,5.12
2017-12-15T05:15:03.545Z,4.99
2017-12-15T05:15:29.655Z,5.18
2017-12-15T05:15:55.774Z,5.04
2017-12-15T05:16:21.883Z,5.1
2017-12-15T05:16:48.000Z,5.2
2017-12-15T05:17:14.114Z,5.18
2017-12-15T05:17:40.225Z,5.18
2017-12-15T05:18:06.343Z,5.12
2017-12-15T05:18:32.453Z,5.18
2017-12-15T05:18:58.566Z,5.1
2017-12-15T05:19:24.683Z,5.11
2017-12-15T05:19:50.796Z,5.12
2017-12-15T05:20:16.932Z,5.11
2017-12-15T05:20:43.048Z,5.11
2017-12-15T05:21:09.158Z,5.17
2017-12-15T05:21:35.272Z,5.14
2017-12-15T05:22:01.404Z,5.29
2017-12-15T05:22:27.517Z,5.28
2017-12-15T05:22:53.628Z,5.29
2017-12-15T05:23:19.747Z,5.33
2017-12-15T05:23:45.865Z,5.33
2017-12-15T05:24:11.981Z,5.36
2017-12-15T05:24:38.111Z,5.32
2017-12-15T05:25:04.226Z,5.39
2017-12-15T05:25:30.356Z,5.48
2017-12-15T05:25:56.475Z,5.48
2017-12-15T05:26:22.588Z,5.51
2017-12-15T05:26:48.714Z,5.47
2017-12-15T05:27:14.851Z,5.54
2017-12-15T05:27:40.962Z,5.47
2017-12-15T05:28:07.071Z,5.38
2017-12-15T05:28:33.194Z,5.51
2017-12-15T05:28:59.310Z,5.41
2017-12-15T05:29:25.425Z,5.35
2017-12-15T05:29:51.533Z,5.33
2017-12-15T05:30:17.653Z,5.47
2017-12-15T05:30:43.762Z,5.41
2017-12-15T05:31:09.874Z,5.35
2017-12-15T05:31:35.994Z,5.35
2017-12-15T05:32:02.130Z,5.26
2017-12-15T05:32:28.242Z,5.36
2017-12-15T05:32:54.360Z,5.38
2017-12-15T05:33:20.473Z,5.41
2017-12-15T05:33:46.583Z,5.32
2017-12-15T05:34:12.701Z,5.26
2017-12-15T05:34:38.810Z,5.32
2017-12-15T05:35:04.930Z,5.25
2017-12-15T05:35:31.043Z,5.23
2017-12-15T05:35:57.159Z,5.2
2017-12-15T05:36:23.276Z,5.17
2017-12-15T05:36:49.390Z,5.25
2017-12-15T05:37:15.497Z,5.26
2017-12-15T05:37:41.615Z,5.33
2017-12-15T05:38:07.733Z,5.29
2017-12-15T05:38:33.843Z,5.33
2017-12-15T05:38:59.982Z,5.32
2017-12-15T05:39:26.092Z,5.3
2017-12-15T05:39:52.204Z,5.25
2017-12-15T05:40:18.325Z,5.25
2017-12-15T05:40:44.443Z,5.26
2017-12-15T05:41:10.545Z,5.3
2017-12-15T05:41:36.664Z,5.29
2017-12-15T05:42:02.773Z,5.38
2017-12-15T05:42:28.894Z,5.35
2017-12-15T05:42:55.012Z,5.28
2017-12-15T05:43:21.123Z,5.29
2017-12-15T05:43:47.241Z,5.3
2017-12-15T05:44:13.378Z,5.29
2017-12-15T05:44:39.491Z,5.32
2017-12-15T05:45:05.606Z,5.3
2017-12-15T05:45:31.736Z,5.35
2017-12-15T05:45:57.853Z,5.44
2017-12-15T05:46:23.965Z,5.35
2017-12-15T05:46:50.078Z,5.29
2017-12-15T05:47:16.188Z,5.28
2017-12-15T05:47:42.299Z,5.3
2017-12-15T05:48:08.422Z,5.39
2017-12-15T05:48:34.532Z,5.33